sensor_id;sensor_type;location;lat;lon;timestamp;P1;durP1;ratioP1;P2;durP2;ratioP2
11618;SDS011;5865;48.776;9.280;2022-07-21T00:00:19;15.20;;;13.52;;
11618;SDS011;5865;48.776;9.280;2022-07-21T00:02:49;15.98;;;14.30;;
11618;SDS011;5865;48.776;9.280;2022-07-21T00:05:27;18.65;;;16.00;;
11618;SDS011;5865;48.776;9.280;2022-07-21T00:07:58;18.30;;;16.00;;
11618;SDS011;5865;48.776;9.280;2022-07-21T00:10:27;15.00;;;13.60;;
11618;SDS011;5865;48.776;9.280;2022-07-21T00:12:59;15.95;;;14.32;;
11618;SDS011;5865;48.776;9.280;2022-07-21T00:15:27;15.80;;;14.15;;
11618;SDS011;5865;48.776;9.280;2022-07-21T00:18:00;17.02;;;15.32;;
11618;SDS011;5865;48.776;9.280;2022-07-21T00:20:27;18.55;;;16.45;;
11618;SDS011;5865;48.776;9.280;2022-07-21T00:22:58;18.27;;;16.48;;
11618;SDS011;5865;48.776;9.280;2022-07-21T00:25:27;17.83;;;16.02;;
11618;SDS011;5865;48.776;9.280;2022-07-21T00:27:57;15.95;;;14.45;;
11618;SDS011;5865;48.776;9.280;2022-07-21T00:30:28;15.93;;;14.50;;
11618;SDS011;5865;48.776;9.280;2022-07-21T00:32:56;19.63;;;17.67;;
11618;SDS011;5865;48.776;9.280;2022-07-21T00:35:25;20.13;;;18.10;;
11618;SDS011;5865;48.776;9.280;2022-07-21T00:38:01;19.42;;;17.58;;
11618;SDS011;5865;48.776;9.280;2022-07-21T00:40:31;16.17;;;14.68;;
11618;SDS011;5865;48.776;9.280;2022-07-21T00:43:00;18.40;;;16.67;;
11618;SDS011;5865;48.776;9.280;2022-07-21T00:45:31;19.75;;;17.40;;
11618;SDS011;5865;48.776;9.280;2022-07-21T00:47:58;19.25;;;17.17;;
11618;SDS011;5865;48.776;9.280;2022-07-21T00:50:28;18.52;;;16.80;;
11618;SDS011;5865;48.776;9.280;2022-07-21T00:52:57;19.27;;;17.45;;
11618;SDS011;5865;48.776;9.280;2022-07-21T00:55:26;19.42;;;17.52;;
11618;SDS011;5865;48.776;9.280;2022-07-21T00:57:58;16.95;;;15.25;;
11618;SDS011;5865;48.776;9.280;2022-07-21T01:00:29;18.83;;;16.83;;
11618;SDS011;5865;48.776;9.280;2022-07-21T01:02:57;19.27;;;17.27;;
11618;SDS011;5865;48.776;9.280;2022-07-21T01:05:30;17.73;;;16.17;;
11618;SDS011;5865;48.776;9.280;2022-07-21T01:07:57;18.58;;;16.77;;
11618;SDS011;5865;48.776;9.280;2022-07-21T01:10:31;20.00;;;17.90;;
11618;SDS011;5865;48.776;9.280;2022-07-21T01:13:07;17.83;;;16.23;;
11618;SDS011;5865;48.776;9.280;2022-07-21T01:15:34;18.58;;;16.83;;
11618;SDS011;5865;48.776;9.280;2022-07-21T01:18:02;17.25;;;15.52;;
11618;SDS011;5865;48.776;9.280;2022-07-21T01:20:34;18.67;;;16.77;;
11618;SDS011;5865;48.776;9.280;2022-07-21T01:23:08;17.23;;;15.52;;
11618;SDS011;5865;48.776;9.280;2022-07-21T01:25:36;16.30;;;14.80;;
11618;SDS011;5865;48.776;9.280;2022-07-21T01:28:04;16.40;;;14.85;;
11618;SDS011;5865;48.776;9.280;2022-07-21T01:30:34;17.85;;;16.23;;
11618;SDS011;5865;48.776;9.280;2022-07-21T01:33:01;17.40;;;15.65;;
11618;SDS011;5865;48.776;9.280;2022-07-21T01:35:35;20.00;;;16.02;;
11618;SDS011;5865;48.776;9.280;2022-07-21T01:38:03;16.27;;;14.63;;
11618;SDS011;5865;48.776;9.280;2022-07-21T01:41:00;18.20;;;16.40;;
11618;SDS011;5865;48.776;9.280;2022-07-21T01:43:45;16.70;;;15.20;;
11618;SDS011;5865;48.776;9.280;2022-07-21T01:46:12;16.95;;;15.25;;
11618;SDS011;5865;48.776;9.280;2022-07-21T01:48:49;18.92;;;17.13;;
11618;SDS011;5865;48.776;9.280;2022-07-21T01:51:20;17.60;;;15.90;;
11618;SDS011;5865;48.776;9.280;2022-07-21T01:53:47;17.65;;;15.98;;
11618;SDS011;5865;48.776;9.280;2022-07-21T01:56:20;19.10;;;17.13;;
11618;SDS011;5865;48.776;9.280;2022-07-21T01:58:49;18.80;;;16.60;;
11618;SDS011;5865;48.776;9.280;2022-07-21T02:01:20;19.92;;;18.02;;
11618;SDS011;5865;48.776;9.280;2022-07-21T02:03:49;15.80;;;14.40;;
11618;SDS011;5865;48.776;9.280;2022-07-21T02:06:16;16.45;;;14.85;;
11618;SDS011;5865;48.776;9.280;2022-07-21T02:08:44;15.82;;;14.25;;
11618;SDS011;5865;48.776;9.280;2022-07-21T02:11:12;15.27;;;13.77;;
11618;SDS011;5865;48.776;9.280;2022-07-21T02:16:43;17.35;;;15.52;;
11618;SDS011;5865;48.776;9.280;2022-07-21T02:23:21;16.73;;;14.85;;
11618;SDS011;5865;48.776;9.280;2022-07-21T02:26:45;16.50;;;14.90;;
11618;SDS011;5865;48.776;9.280;2022-07-21T02:29:58;16.33;;;14.85;;
11618;SDS011;5865;48.776;9.280;2022-07-21T02:33:09;17.38;;;15.63;;
11618;SDS011;5865;48.776;9.280;2022-07-21T02:36:12;16.35;;;14.75;;
11618;SDS011;5865;48.776;9.280;2022-07-21T02:39:19;17.10;;;15.35;;
11618;SDS011;5865;48.776;9.280;2022-07-21T02:42:37;15.93;;;14.43;;
11618;SDS011;5865;48.776;9.280;2022-07-21T02:45:40;14.63;;;12.98;;
11618;SDS011;5865;48.776;9.280;2022-07-21T02:52:01;12.40;;;11.10;;
11618;SDS011;5865;48.776;9.280;2022-07-21T02:54:51;13.68;;;12.48;;
11618;SDS011;5865;48.776;9.280;2022-07-21T02:57:48;14.15;;;12.82;;
11618;SDS011;5865;48.776;9.280;2022-07-21T03:00:43;14.68;;;13.00;;
11618;SDS011;5865;48.776;9.280;2022-07-21T03:03:28;15.10;;;13.52;;
11618;SDS011;5865;48.776;9.280;2022-07-21T03:06:26;14.00;;;12.68;;
11618;SDS011;5865;48.776;9.280;2022-07-21T03:08:59;14.73;;;13.23;;
11618;SDS011;5865;48.776;9.280;2022-07-21T03:12:05;15.27;;;13.68;;
11618;SDS011;5865;48.776;9.280;2022-07-21T03:14:41;14.25;;;12.75;;
11618;SDS011;5865;48.776;9.280;2022-07-21T03:17:45;12.00;;;10.75;;
11618;SDS011;5865;48.776;9.280;2022-07-21T03:20:39;11.88;;;10.68;;
11618;SDS011;5865;48.776;9.280;2022-07-21T03:23:14;11.70;;;10.60;;
11618;SDS011;5865;48.776;9.280;2022-07-21T03:26:10;11.05;;;9.95;;
11618;SDS011;5865;48.776;9.280;2022-07-21T03:29:02;10.80;;;9.75;;
11618;SDS011;5865;48.776;9.280;2022-07-21T03:31:51;11.70;;;9.02;;
11618;SDS011;5865;48.776;9.280;2022-07-21T03:34:30;10.85;;;9.23;;
11618;SDS011;5865;48.776;9.280;2022-07-21T03:37:05;9.65;;;8.75;;
11618;SDS011;5865;48.776;9.280;2022-07-21T03:39:46;9.02;;;8.10;;
11618;SDS011;5865;48.776;9.280;2022-07-21T03:42:35;9.30;;;8.30;;
11618;SDS011;5865;48.776;9.280;2022-07-21T03:45:24;8.63;;;7.28;;
11618;SDS011;5865;48.776;9.280;2022-07-21T03:48:21;12.18;;;7.65;;
11618;SDS011;5865;48.776;9.280;2022-07-21T03:51:19;8.25;;;7.55;;
11618;SDS011;5865;48.776;9.280;2022-07-21T03:57:43;7.78;;;6.97;;
11618;SDS011;5865;48.776;9.280;2022-07-21T04:00:32;8.85;;;7.60;;
11618;SDS011;5865;48.776;9.280;2022-07-21T04:03:20;7.70;;;7.00;;
11618;SDS011;5865;48.776;9.280;2022-07-21T04:05:58;7.38;;;6.72;;
11618;SDS011;5865;48.776;9.280;2022-07-21T04:08:47;7.40;;;6.80;;
11618;SDS011;5865;48.776;9.280;2022-07-21T04:11:31;8.57;;;7.78;;
11618;SDS011;5865;48.776;9.280;2022-07-21T04:14:21;8.55;;;7.72;;
11618;SDS011;5865;48.776;9.280;2022-07-21T04:16:57;8.40;;;7.30;;
11618;SDS011;5865;48.776;9.280;2022-07-21T04:19:33;9.57;;;8.70;;
11618;SDS011;5865;48.776;9.280;2022-07-21T04:22:17;8.25;;;7.45;;
11618;SDS011;5865;48.776;9.280;2022-07-21T04:25:00;8.93;;;8.02;;
11618;SDS011;5865;48.776;9.280;2022-07-21T04:27:28;9.10;;;8.30;;
11618;SDS011;5865;48.776;9.280;2022-07-21T04:30:02;8.55;;;7.00;;
11618;SDS011;5865;48.776;9.280;2022-07-21T04:32:37;8.40;;;7.70;;
11618;SDS011;5865;48.776;9.280;2022-07-21T04:35:08;8.80;;;7.90;;
11618;SDS011;5865;48.776;9.280;2022-07-21T04:37:41;7.57;;;6.88;;
11618;SDS011;5865;48.776;9.280;2022-07-21T04:43:40;7.60;;;6.90;;
11618;SDS011;5865;48.776;9.280;2022-07-21T04:46:19;10.15;;;7.10;;
11618;SDS011;5865;48.776;9.280;2022-07-21T04:48:49;7.40;;;6.68;;
11618;SDS011;5865;48.776;9.280;2022-07-21T04:51:17;7.00;;;6.30;;
11618;SDS011;5865;48.776;9.280;2022-07-21T04:53:51;8.20;;;7.40;;
11618;SDS011;5865;48.776;9.280;2022-07-21T04:56:22;9.95;;;7.00;;
11618;SDS011;5865;48.776;9.280;2022-07-21T04:59:01;7.30;;;6.60;;
11618;SDS011;5865;48.776;9.280;2022-07-21T05:01:32;8.10;;;7.40;;
11618;SDS011;5865;48.776;9.280;2022-07-21T05:04:07;7.90;;;7.22;;
11618;SDS011;5865;48.776;9.280;2022-07-21T05:06:36;8.43;;;7.60;;
11618;SDS011;5865;48.776;9.280;2022-07-21T05:09:11;8.50;;;7.70;;
11618;SDS011;5865;48.776;9.280;2022-07-21T05:11:39;7.60;;;7.00;;
11618;SDS011;5865;48.776;9.280;2022-07-21T05:14:38;7.97;;;7.28;;
11618;SDS011;5865;48.776;9.280;2022-07-21T05:17:07;7.97;;;7.13;;
11618;SDS011;5865;48.776;9.280;2022-07-21T05:19:40;7.30;;;6.60;;
11618;SDS011;5865;48.776;9.280;2022-07-21T05:22:14;6.93;;;6.32;;
11618;SDS011;5865;48.776;9.280;2022-07-21T05:24:41;8.70;;;7.90;;
11618;SDS011;5865;48.776;9.280;2022-07-21T05:27:09;8.52;;;7.75;;
11618;SDS011;5865;48.776;9.280;2022-07-21T05:29:46;7.75;;;6.80;;
11618;SDS011;5865;48.776;9.280;2022-07-21T05:32:14;8.60;;;7.80;;
11618;SDS011;5865;48.776;9.280;2022-07-21T05:34:42;9.10;;;8.10;;
11618;SDS011;5865;48.776;9.280;2022-07-21T05:37:09;8.90;;;8.00;;
11618;SDS011;5865;48.776;9.280;2022-07-21T05:39:37;7.57;;;6.88;;
11618;SDS011;5865;48.776;9.280;2022-07-21T05:42:04;8.27;;;7.47;;
11618;SDS011;5865;48.776;9.280;2022-07-21T05:44:33;7.85;;;7.05;;
11618;SDS011;5865;48.776;9.280;2022-07-21T05:47:04;8.27;;;7.20;;
11618;SDS011;5865;48.776;9.280;2022-07-21T05:49:32;8.73;;;7.68;;
11618;SDS011;5865;48.776;9.280;2022-07-21T05:52:01;9.85;;;8.85;;
11618;SDS011;5865;48.776;9.280;2022-07-21T05:54:28;11.98;;;8.73;;
11618;SDS011;5865;48.776;9.280;2022-07-21T05:56:56;8.05;;;7.25;;
11618;SDS011;5865;48.776;9.280;2022-07-21T05:59:27;8.75;;;7.90;;
11618;SDS011;5865;48.776;9.280;2022-07-21T06:01:55;11.63;;;9.25;;
11618;SDS011;5865;48.776;9.280;2022-07-21T06:04:29;9.80;;;8.90;;
11618;SDS011;5865;48.776;9.280;2022-07-21T06:07:01;9.90;;;8.90;;
11618;SDS011;5865;48.776;9.280;2022-07-21T06:09:36;9.63;;;8.73;;
11618;SDS011;5865;48.776;9.280;2022-07-21T06:12:06;11.50;;;8.40;;
11618;SDS011;5865;48.776;9.280;2022-07-21T06:14:40;10.35;;;8.57;;
11618;SDS011;5865;48.776;9.280;2022-07-21T06:17:11;10.15;;;9.00;;
11618;SDS011;5865;48.776;9.280;2022-07-21T06:19:41;9.00;;;8.20;;
11618;SDS011;5865;48.776;9.280;2022-07-21T06:25:04;13.50;;;8.65;;
11618;SDS011;5865;48.776;9.280;2022-07-21T06:27:35;8.93;;;8.02;;
11618;SDS011;5865;48.776;9.280;2022-07-21T06:30:03;9.98;;;8.98;;
11618;SDS011;5865;48.776;9.280;2022-07-21T06:32:34;9.20;;;8.30;;
11618;SDS011;5865;48.776;9.280;2022-07-21T06:35:03;10.35;;;8.20;;
11618;SDS011;5865;48.776;9.280;2022-07-21T06:37:37;8.90;;;7.90;;
11618;SDS011;5865;48.776;9.280;2022-07-21T06:40:08;7.80;;;7.10;;
11618;SDS011;5865;48.776;9.280;2022-07-21T06:42:35;9.25;;;7.18;;
11618;SDS011;5865;48.776;9.280;2022-07-21T06:45:04;8.73;;;7.13;;
11618;SDS011;5865;48.776;9.280;2022-07-21T06:47:38;7.15;;;6.40;;
11618;SDS011;5865;48.776;9.280;2022-07-21T06:50:10;8.80;;;7.20;;
11618;SDS011;5865;48.776;9.280;2022-07-21T06:52:40;8.25;;;7.45;;
11618;SDS011;5865;48.776;9.280;2022-07-21T06:55:13;7.97;;;7.18;;
11618;SDS011;5865;48.776;9.280;2022-07-21T06:57:56;8.52;;;7.63;;
11618;SDS011;5865;48.776;9.280;2022-07-21T07:00:26;8.25;;;7.07;;
11618;SDS011;5865;48.776;9.280;2022-07-21T07:02:55;8.15;;;7.35;;
11618;SDS011;5865;48.776;9.280;2022-07-21T07:08:27;7.28;;;6.57;;
11618;SDS011;5865;48.776;9.280;2022-07-21T07:10:55;7.40;;;6.70;;
11618;SDS011;5865;48.776;9.280;2022-07-21T07:13:22;7.07;;;6.20;;
11618;SDS011;5865;48.776;9.280;2022-07-21T07:15:53;9.57;;;7.07;;
11618;SDS011;5865;48.776;9.280;2022-07-21T07:18:23;7.57;;;6.88;;
11618;SDS011;5865;48.776;9.280;2022-07-21T07:20:52;8.25;;;6.55;;
11618;SDS011;5865;48.776;9.280;2022-07-21T07:23:20;7.40;;;6.45;;
11618;SDS011;5865;48.776;9.280;2022-07-21T07:25:47;7.50;;;6.35;;
11618;SDS011;5865;48.776;9.280;2022-07-21T07:28:15;7.65;;;6.47;;
11618;SDS011;5865;48.776;9.280;2022-07-21T07:30:43;6.43;;;5.82;;
11618;SDS011;5865;48.776;9.280;2022-07-21T07:33:11;7.47;;;5.95;;
11618;SDS011;5865;48.776;9.280;2022-07-21T07:35:39;6.32;;;5.72;;
11618;SDS011;5865;48.776;9.280;2022-07-21T07:38:14;7.03;;;6.32;;
11618;SDS011;5865;48.776;9.280;2022-07-21T07:40:43;8.15;;;7.28;;
11618;SDS011;5865;48.776;9.280;2022-07-21T07:43:15;7.35;;;6.57;;
11618;SDS011;5865;48.776;9.280;2022-07-21T07:45:45;6.18;;;5.40;;
11618;SDS011;5865;48.776;9.280;2022-07-21T07:48:13;6.20;;;5.60;;
11618;SDS011;5865;48.776;9.280;2022-07-21T07:51:09;7.78;;;5.72;;
11618;SDS011;5865;48.776;9.280;2022-07-21T07:53:46;6.25;;;5.60;;
11618;SDS011;5865;48.776;9.280;2022-07-21T07:56:15;6.45;;;5.80;;
11618;SDS011;5865;48.776;9.280;2022-07-21T07:58:46;6.63;;;5.75;;
11618;SDS011;5865;48.776;9.280;2022-07-21T08:01:13;5.60;;;5.10;;
11618;SDS011;5865;48.776;9.280;2022-07-21T08:03:41;6.28;;;5.40;;
11618;SDS011;5865;48.776;9.280;2022-07-21T08:06:10;6.15;;;5.53;;
11618;SDS011;5865;48.776;9.280;2022-07-21T08:08:52;8.23;;;5.60;;
11618;SDS011;5865;48.776;9.280;2022-07-21T08:11:30;8.30;;;6.30;;
11618;SDS011;5865;48.776;9.280;2022-07-21T08:13:58;6.38;;;5.70;;
11618;SDS011;5865;48.776;9.280;2022-07-21T08:16:26;6.55;;;5.75;;
11618;SDS011;5865;48.776;9.280;2022-07-21T08:18:54;6.13;;;5.40;;
11618;SDS011;5865;48.776;9.280;2022-07-21T08:21:24;6.82;;;5.43;;
11618;SDS011;5865;48.776;9.280;2022-07-21T08:23:59;5.82;;;5.30;;
11618;SDS011;5865;48.776;9.280;2022-07-21T08:26:27;6.95;;;5.93;;
11618;SDS011;5865;48.776;9.280;2022-07-21T08:29:04;6.20;;;5.60;;
11618;SDS011;5865;48.776;9.280;2022-07-21T08:31:34;7.53;;;5.47;;
11618;SDS011;5865;48.776;9.280;2022-07-21T08:34:07;7.97;;;5.30;;
11618;SDS011;5865;48.776;9.280;2022-07-21T08:36:38;6.60;;;5.47;;
11618;SDS011;5865;48.776;9.280;2022-07-21T08:42:16;5.50;;;4.97;;
11618;SDS011;5865;48.776;9.280;2022-07-21T08:44:47;6.03;;;5.40;;
11618;SDS011;5865;48.776;9.280;2022-07-21T08:47:15;6.00;;;5.15;;
11618;SDS011;5865;48.776;9.280;2022-07-21T08:49:44;5.63;;;4.70;;
11618;SDS011;5865;48.776;9.280;2022-07-21T08:52:20;5.88;;;5.28;;
11618;SDS011;5865;48.776;9.280;2022-07-21T08:54:52;5.05;;;4.55;;
11618;SDS011;5865;48.776;9.280;2022-07-21T08:57:24;6.13;;;4.75;;
11618;SDS011;5865;48.776;9.280;2022-07-21T08:59:52;5.57;;;4.65;;
11618;SDS011;5865;48.776;9.280;2022-07-21T09:02:30;5.03;;;4.32;;
11618;SDS011;5865;48.776;9.280;2022-07-21T09:05:00;5.68;;;4.80;;
11618;SDS011;5865;48.776;9.280;2022-07-21T09:07:29;6.50;;;4.63;;
11618;SDS011;5865;48.776;9.280;2022-07-21T09:10:21;5.15;;;4.65;;
11618;SDS011;5865;48.776;9.280;2022-07-21T09:12:57;5.47;;;4.75;;
11618;SDS011;5865;48.776;9.280;2022-07-21T09:15:27;5.55;;;4.78;;
11618;SDS011;5865;48.776;9.280;2022-07-21T09:18:05;5.10;;;4.60;;
11618;SDS011;5865;48.776;9.280;2022-07-21T09:26:07;5.30;;;4.40;;
11618;SDS011;5865;48.776;9.280;2022-07-21T09:28:38;4.97;;;4.47;;
11618;SDS011;5865;48.776;9.280;2022-07-21T09:31:11;4.53;;;4.13;;
11618;SDS011;5865;48.776;9.280;2022-07-21T09:33:39;4.13;;;3.80;;
11618;SDS011;5865;48.776;9.280;2022-07-21T09:36:09;5.80;;;3.72;;
11618;SDS011;5865;48.776;9.280;2022-07-21T09:38:39;4.03;;;3.70;;
11618;SDS011;5865;48.776;9.280;2022-07-21T09:41:11;4.20;;;3.80;;
11618;SDS011;5865;48.776;9.280;2022-07-21T09:43:47;5.80;;;4.00;;
11618;SDS011;5865;48.776;9.280;2022-07-21T09:46:29;4.50;;;4.00;;
11618;SDS011;5865;48.776;9.280;2022-07-21T09:48:59;4.53;;;3.70;;
11618;SDS011;5865;48.776;9.280;2022-07-21T09:51:30;4.72;;;4.05;;
11618;SDS011;5865;48.776;9.280;2022-07-21T09:54:03;4.00;;;3.60;;
11618;SDS011;5865;48.776;9.280;2022-07-21T09:56:33;5.18;;;3.88;;
11618;SDS011;5865;48.776;9.280;2022-07-21T09:59:04;4.47;;;4.07;;
11618;SDS011;5865;48.776;9.280;2022-07-21T10:01:45;5.32;;;4.10;;
11618;SDS011;5865;48.776;9.280;2022-07-21T10:04:18;4.55;;;4.10;;
11618;SDS011;5865;48.776;9.280;2022-07-21T10:06:48;4.15;;;3.85;;
11618;SDS011;5865;48.776;9.280;2022-07-21T10:09:16;4.72;;;3.85;;
11618;SDS011;5865;48.776;9.280;2022-07-21T10:11:48;4.72;;;3.80;;
11618;SDS011;5865;48.776;9.280;2022-07-21T10:14:22;4.03;;;3.40;;
11618;SDS011;5865;48.776;9.280;2022-07-21T10:16:50;3.90;;;3.50;;
11618;SDS011;5865;48.776;9.280;2022-07-21T10:19:19;5.07;;;3.55;;
11618;SDS011;5865;48.776;9.280;2022-07-21T10:21:55;3.45;;;3.15;;
11618;SDS011;5865;48.776;9.280;2022-07-21T10:24:25;3.60;;;3.30;;
11618;SDS011;5865;48.776;9.280;2022-07-21T10:27:02;4.05;;;3.58;;
11618;SDS011;5865;48.776;9.280;2022-07-21T10:32:24;4.10;;;3.70;;
11618;SDS011;5865;48.776;9.280;2022-07-21T10:34:54;4.35;;;3.40;;
11618;SDS011;5865;48.776;9.280;2022-07-21T10:49:06;4.38;;;3.50;;
11618;SDS011;5865;48.776;9.280;2022-07-21T10:51:34;4.30;;;3.88;;
11618;SDS011;5865;48.776;9.280;2022-07-21T10:54:17;5.10;;;3.95;;
11618;SDS011;5865;48.776;9.280;2022-07-21T10:56:46;4.00;;;3.70;;
11618;SDS011;5865;48.776;9.280;2022-07-21T10:59:14;4.00;;;3.70;;
11618;SDS011;5865;48.776;9.280;2022-07-21T11:01:43;4.53;;;3.70;;
11618;SDS011;5865;48.776;9.280;2022-07-21T11:04:12;3.88;;;3.47;;
11618;SDS011;5865;48.776;9.280;2022-07-21T11:06:41;4.72;;;3.72;;
11618;SDS011;5865;48.776;9.280;2022-07-21T11:09:13;5.40;;;3.88;;
11618;SDS011;5865;48.776;9.280;2022-07-21T11:11:56;4.45;;;3.60;;
11618;SDS011;5865;48.776;9.280;2022-07-21T11:14:35;4.25;;;3.45;;
11618;SDS011;5865;48.776;9.280;2022-07-21T11:17:04;3.75;;;3.40;;
11618;SDS011;5865;48.776;9.280;2022-07-21T11:19:33;4.82;;;3.72;;
11618;SDS011;5865;48.776;9.280;2022-07-21T11:22:20;4.90;;;3.67;;
11618;SDS011;5865;48.776;9.280;2022-07-21T11:24:49;4.35;;;3.20;;
11618;SDS011;5865;48.776;9.280;2022-07-21T11:27:17;3.45;;;3.15;;
11618;SDS011;5865;48.776;9.280;2022-07-21T11:29:51;4.00;;;3.38;;
11618;SDS011;5865;48.776;9.280;2022-07-21T11:32:22;3.63;;;3.33;;
11618;SDS011;5865;48.776;9.280;2022-07-21T11:34:54;3.55;;;3.25;;
11618;SDS011;5865;48.776;9.280;2022-07-21T11:37:27;4.00;;;3.60;;
11618;SDS011;5865;48.776;9.280;2022-07-21T11:39:57;4.85;;;3.83;;
11618;SDS011;5865;48.776;9.280;2022-07-21T11:42:25;5.82;;;3.70;;
11618;SDS011;5865;48.776;9.280;2022-07-21T11:44:55;3.83;;;3.40;;
11618;SDS011;5865;48.776;9.280;2022-07-21T11:47:24;4.35;;;3.70;;
11618;SDS011;5865;48.776;9.280;2022-07-21T11:49:52;5.35;;;3.40;;
11618;SDS011;5865;48.776;9.280;2022-07-21T11:52:24;3.65;;;3.30;;
11618;SDS011;5865;48.776;9.280;2022-07-21T11:54:52;4.13;;;3.72;;
11618;SDS011;5865;48.776;9.280;2022-07-21T11:57:21;4.38;;;3.42;;
11618;SDS011;5865;48.776;9.280;2022-07-21T11:59:49;5.65;;;3.80;;
11618;SDS011;5865;48.776;9.280;2022-07-21T12:02:19;4.75;;;3.63;;
11618;SDS011;5865;48.776;9.280;2022-07-21T12:04:49;4.43;;;3.85;;
11618;SDS011;5865;48.776;9.280;2022-07-21T12:07:19;4.50;;;3.70;;
11618;SDS011;5865;48.776;9.280;2022-07-21T12:09:49;3.97;;;3.67;;
11618;SDS011;5865;48.776;9.280;2022-07-21T12:12:31;4.03;;;3.50;;
11618;SDS011;5865;48.776;9.280;2022-07-21T12:15:12;4.95;;;3.60;;
11618;SDS011;5865;48.776;9.280;2022-07-21T12:17:41;5.28;;;3.85;;
11618;SDS011;5865;48.776;9.280;2022-07-21T12:20:24;3.92;;;3.53;;
11618;SDS011;5865;48.776;9.280;2022-07-21T12:22:53;4.07;;;3.67;;
11618;SDS011;5865;48.776;9.280;2022-07-21T12:25:29;6.40;;;3.50;;
11618;SDS011;5865;48.776;9.280;2022-07-21T12:27:58;4.00;;;3.40;;
11618;SDS011;5865;48.776;9.280;2022-07-21T12:30:32;4.68;;;3.88;;
11618;SDS011;5865;48.776;9.280;2022-07-21T12:33:05;3.97;;;3.58;;
11618;SDS011;5865;48.776;9.280;2022-07-21T12:35:35;4.07;;;3.67;;
11618;SDS011;5865;48.776;9.280;2022-07-21T12:38:05;4.45;;;3.47;;
11618;SDS011;5865;48.776;9.280;2022-07-21T12:40:37;3.88;;;3.45;;
11618;SDS011;5865;48.776;9.280;2022-07-21T12:43:09;3.60;;;3.28;;
11618;SDS011;5865;48.776;9.280;2022-07-21T12:45:50;3.28;;;3.03;;
11618;SDS011;5865;48.776;9.280;2022-07-21T12:48:19;5.10;;;3.10;;
11618;SDS011;5865;48.776;9.280;2022-07-21T12:51:10;4.00;;;3.60;;
11618;SDS011;5865;48.776;9.280;2022-07-21T12:53:40;4.70;;;3.75;;
11618;SDS011;5865;48.776;9.280;2022-07-21T12:56:09;5.32;;;3.85;;
11618;SDS011;5865;48.776;9.280;2022-07-21T12:58:39;5.43;;;3.92;;
11618;SDS011;5865;48.776;9.280;2022-07-21T13:01:08;6.28;;;3.50;;
11618;SDS011;5865;48.776;9.280;2022-07-21T13:03:37;4.07;;;3.67;;
11618;SDS011;5865;48.776;9.280;2022-07-21T13:06:04;4.68;;;4.13;;
11618;SDS011;5865;48.776;9.280;2022-07-21T13:08:40;5.10;;;3.75;;
11618;SDS011;5865;48.776;9.280;2022-07-21T13:11:08;4.97;;;3.85;;
11618;SDS011;5865;48.776;9.280;2022-07-21T13:13:36;4.20;;;3.83;;
11618;SDS011;5865;48.776;9.280;2022-07-21T13:16:03;5.25;;;4.30;;
11618;SDS011;5865;48.776;9.280;2022-07-21T13:18:31;7.22;;;4.03;;
11618;SDS011;5865;48.776;9.280;2022-07-21T13:20:58;4.75;;;3.80;;
11618;SDS011;5865;48.776;9.280;2022-07-21T13:23:25;4.47;;;4.07;;
11618;SDS011;5865;48.776;9.280;2022-07-21T13:25:54;6.63;;;4.18;;
11618;SDS011;5865;48.776;9.280;2022-07-21T13:28:21;5.45;;;3.83;;
11618;SDS011;5865;48.776;9.280;2022-07-21T13:30:50;4.25;;;3.83;;
11618;SDS011;5865;48.776;9.280;2022-07-21T13:33:17;3.70;;;3.40;;
11618;SDS011;5865;48.776;9.280;2022-07-21T13:35:45;4.22;;;3.90;;
11618;SDS011;5865;48.776;9.280;2022-07-21T13:38:13;5.05;;;3.85;;
11618;SDS011;5865;48.776;9.280;2022-07-21T13:40:42;4.15;;;3.78;;
11618;SDS011;5865;48.776;9.280;2022-07-21T13:43:16;4.93;;;3.95;;
11618;SDS011;5865;48.776;9.280;2022-07-21T13:45:43;3.80;;;3.50;;
11618;SDS011;5865;48.776;9.280;2022-07-21T13:48:12;4.25;;;3.85;;
11618;SDS011;5865;48.776;9.280;2022-07-21T13:50:53;4.38;;;3.50;;
11618;SDS011;5865;48.776;9.280;2022-07-21T13:53:21;4.75;;;3.67;;
11618;SDS011;5865;48.776;9.280;2022-07-21T13:55:49;4.25;;;3.80;;
11618;SDS011;5865;48.776;9.280;2022-07-21T14:01:03;4.35;;;3.70;;
11618;SDS011;5865;48.776;9.280;2022-07-21T14:03:31;4.88;;;3.80;;
11618;SDS011;5865;48.776;9.280;2022-07-21T14:05:59;3.53;;;3.22;;
11618;SDS011;5865;48.776;9.280;2022-07-21T14:08:27;3.85;;;3.55;;
11618;SDS011;5865;48.776;9.280;2022-07-21T14:10:55;4.00;;;3.30;;
11618;SDS011;5865;48.776;9.280;2022-07-21T14:13:22;3.50;;;3.20;;
11618;SDS011;5865;48.776;9.280;2022-07-21T14:15:54;4.35;;;3.20;;
11618;SDS011;5865;48.776;9.280;2022-07-21T14:18:22;3.63;;;3.20;;
11618;SDS011;5865;48.776;9.280;2022-07-21T14:20:51;4.07;;;3.30;;
11618;SDS011;5865;48.776;9.280;2022-07-21T14:23:18;3.75;;;3.33;;
11618;SDS011;5865;48.776;9.280;2022-07-21T14:25:46;3.47;;;3.17;;
11618;SDS011;5865;48.776;9.280;2022-07-21T14:28:13;3.65;;;3.30;;
11618;SDS011;5865;48.776;9.280;2022-07-21T14:30:40;4.00;;;3.00;;
11618;SDS011;5865;48.776;9.280;2022-07-21T14:33:09;4.65;;;2.97;;
11618;SDS011;5865;48.776;9.280;2022-07-21T14:35:36;3.50;;;3.20;;
11618;SDS011;5865;48.776;9.280;2022-07-21T14:38:03;3.40;;;3.05;;
11618;SDS011;5865;48.776;9.280;2022-07-21T14:40:37;3.70;;;3.40;;
11618;SDS011;5865;48.776;9.280;2022-07-21T14:43:05;4.32;;;3.35;;
11618;SDS011;5865;48.776;9.280;2022-07-21T14:45:32;3.90;;;3.33;;
11618;SDS011;5865;48.776;9.280;2022-07-21T14:47:59;3.17;;;2.97;;
11618;SDS011;5865;48.776;9.280;2022-07-21T14:50:28;4.47;;;3.55;;
11618;SDS011;5865;48.776;9.280;2022-07-21T14:52:57;4.32;;;3.38;;
11618;SDS011;5865;48.776;9.280;2022-07-21T14:55:26;4.20;;;3.50;;
11618;SDS011;5865;48.776;9.280;2022-07-21T14:57:55;4.18;;;3.28;;
11618;SDS011;5865;48.776;9.280;2022-07-21T15:00:23;4.22;;;3.33;;
11618;SDS011;5865;48.776;9.280;2022-07-21T15:02:50;3.55;;;3.20;;
11618;SDS011;5865;48.776;9.280;2022-07-21T15:05:17;5.05;;;3.20;;
11618;SDS011;5865;48.776;9.280;2022-07-21T15:07:45;3.63;;;3.33;;
11618;SDS011;5865;48.776;9.280;2022-07-21T15:10:13;4.82;;;3.17;;
11618;SDS011;5865;48.776;9.280;2022-07-21T15:15:11;3.20;;;2.90;;
11618;SDS011;5865;48.776;9.280;2022-07-21T15:17:39;3.45;;;3.13;;
11618;SDS011;5865;48.776;9.280;2022-07-21T15:20:06;3.85;;;3.10;;
11618;SDS011;5865;48.776;9.280;2022-07-21T15:22:35;3.85;;;3.20;;
11618;SDS011;5865;48.776;9.280;2022-07-21T15:25:03;3.47;;;3.17;;
11618;SDS011;5865;48.776;9.280;2022-07-21T15:27:35;4.00;;;3.15;;
11618;SDS011;5865;48.776;9.280;2022-07-21T15:30:04;5.18;;;3.08;;
11618;SDS011;5865;48.776;9.280;2022-07-21T15:32:32;3.20;;;2.90;;
11618;SDS011;5865;48.776;9.280;2022-07-21T15:35:01;3.45;;;2.90;;
11618;SDS011;5865;48.776;9.280;2022-07-21T15:37:29;2.90;;;2.60;;
11618;SDS011;5865;48.776;9.280;2022-07-21T15:39:56;3.70;;;3.00;;
11618;SDS011;5865;48.776;9.280;2022-07-21T15:42:24;5.32;;;3.08;;
11618;SDS011;5865;48.776;9.280;2022-07-21T15:44:53;7.57;;;3.30;;
11618;SDS011;5865;48.776;9.280;2022-07-21T15:47:20;3.85;;;3.03;;
11618;SDS011;5865;48.776;9.280;2022-07-21T15:49:47;3.50;;;2.95;;
11618;SDS011;5865;48.776;9.280;2022-07-21T15:52:14;3.83;;;3.00;;
11618;SDS011;5865;48.776;9.280;2022-07-21T15:54:42;3.50;;;2.80;;
11618;SDS011;5865;48.776;9.280;2022-07-21T15:57:09;4.40;;;3.00;;
11618;SDS011;5865;48.776;9.280;2022-07-21T15:59:37;3.25;;;2.95;;
11618;SDS011;5865;48.776;9.280;2022-07-21T16:02:05;4.18;;;3.10;;
11618;SDS011;5865;48.776;9.280;2022-07-21T16:04:33;4.63;;;3.13;;
11618;SDS011;5865;48.776;9.280;2022-07-21T16:07:01;2.90;;;2.70;;
11618;SDS011;5865;48.776;9.280;2022-07-21T16:09:28;3.00;;;2.80;;
11618;SDS011;5865;48.776;9.280;2022-07-21T16:11:56;3.30;;;3.00;;
11618;SDS011;5865;48.776;9.280;2022-07-21T16:14:23;3.92;;;2.80;;
11618;SDS011;5865;48.776;9.280;2022-07-21T16:16:52;3.90;;;2.95;;
11618;SDS011;5865;48.776;9.280;2022-07-21T16:19:20;3.40;;;2.78;;
11618;SDS011;5865;48.776;9.280;2022-07-21T16:21:48;3.00;;;2.60;;